createdAt,value
2018-08-20T00:01:36.325Z,13.40
2018-08-20T00:04:06.779Z,13.30
2018-08-20T00:06:47.904Z,13.30
2018-08-20T00:09:16.473Z,13.20
2018-08-20T00:11:44.323Z,13.30
2018-08-20T00:14:13.799Z,13.20
2018-08-20T00:16:41.658Z,13.20
2018-08-20T00:19:12.740Z,13.30
2018-08-20T00:21:41.572Z,13.30
2018-08-20T00:24:09.504Z,13.20
2018-08-20T00:26:37.774Z,13.20
2018-08-20T00:29:06.117Z,13.20
2018-08-20T00:31:35.639Z,13.10
2018-08-20T00:34:03.396Z,13.10
2018-08-20T00:36:31.448Z,13.10
2018-08-20T00:38:59.222Z,13.10
2018-08-20T00:41:27.174Z,13.10
2018-08-20T00:43:55.152Z,13.20
2018-08-20T00:46:23.699Z,13.10
2018-08-20T00:48:51.875Z,13.10
2018-08-20T00:51:19.657Z,13.00
2018-08-20T00:53:47.435Z,13.00
2018-08-20T00:56:15.389Z,12.90
2018-08-20T00:58:43.590Z,12.90
2018-08-20T01:01:11.863Z,12.80
2018-08-20T01:03:39.632Z,12.80
2018-08-20T01:06:07.683Z,12.80
2018-08-20T01:08:35.845Z,12.80
2018-08-20T01:11:03.869Z,12.80
2018-08-20T01:13:32.273Z,12.80
2018-08-20T01:16:00.155Z,12.80
2018-08-20T01:18:27.900Z,12.70
2018-08-20T01:20:56.116Z,12.70
2018-08-20T01:23:24.113Z,12.70
2018-08-20T01:25:52.275Z,12.70
2018-08-20T01:28:20.080Z,12.70
2018-08-20T01:30:48.351Z,12.60
2018-08-20T01:33:16.781Z,12.50
2018-08-20T01:35:45.247Z,12.50
2018-08-20T01:38:13.198Z,12.50
2018-08-20T01:40:41.084Z,12.50
2018-08-20T01:43:09.253Z,12.50
2018-08-20T01:45:37.295Z,12.40
2018-08-20T01:48:05.148Z,12.50
2018-08-20T01:50:32.934Z,12.50
2018-08-20T01:53:00.783Z,12.50
2018-08-20T01:55:28.716Z,12.40
2018-08-20T01:57:56.589Z,12.40
2018-08-20T02:00:24.742Z,12.30
2018-08-20T02:02:52.751Z,12.30
2018-08-20T02:05:21.168Z,12.30
2018-08-20T02:07:49.390Z,12.20
2018-08-20T02:10:17.850Z,12.20
2018-08-20T02:12:45.809Z,12.20
2018-08-20T02:15:13.952Z,12.20
2018-08-20T02:17:41.782Z,12.20
2018-08-20T02:20:10.079Z,12.20
2018-08-20T02:22:38.554Z,12.20
2018-08-20T02:25:06.618Z,12.10
2018-08-20T02:27:34.522Z,12.10
2018-08-20T02:30:02.568Z,12.10
2018-08-20T02:32:30.617Z,12.00
2018-08-20T02:34:58.585Z,12.00
2018-08-20T02:37:31.167Z,12.00
2018-08-20T02:39:59.604Z,12.00
2018-08-20T02:42:27.538Z,11.90
2018-08-20T02:44:55.404Z,11.90
2018-08-20T02:47:23.131Z,11.90
2018-08-20T02:49:51.072Z,11.90
2018-08-20T02:52:19.251Z,11.90
2018-08-20T02:54:47.251Z,11.80
2018-08-20T02:57:15.109Z,11.80
2018-08-20T02:59:42.937Z,11.70
2018-08-20T03:02:11.143Z,11.80
2018-08-20T03:04:39.370Z,11.70
2018-08-20T03:07:07.383Z,11.70
2018-08-20T03:09:35.244Z,11.70
2018-08-20T03:12:03.363Z,11.70
2018-08-20T03:14:31.529Z,11.60
2018-08-20T03:16:59.550Z,11.70
2018-08-20T03:19:27.663Z,11.60
2018-08-20T03:21:55.542Z,11.70
2018-08-20T03:24:23.594Z,11.60
2018-08-20T03:26:51.316Z,11.60
2018-08-20T03:29:19.205Z,11.50
2018-08-20T03:31:47.101Z,11.50
2018-08-20T03:34:15.182Z,11.50
2018-08-20T03:36:43.256Z,11.50
2018-08-20T03:39:11.363Z,11.50
2018-08-20T03:41:39.502Z,11.50
2018-08-20T03:44:07.650Z,11.50
2018-08-20T03:46:36.821Z,11.50
2018-08-20T03:49:05.306Z,11.50
2018-08-20T03:54:17.191Z,11.50
2018-08-20T03:56:45.033Z,11.50
2018-08-20T03:59:28.637Z,11.40
2018-08-20T04:01:56.824Z,11.40
2018-08-20T04:04:25.099Z,11.40
2018-08-20T04:06:52.934Z,11.40
2018-08-20T04:09:20.863Z,11.40
2018-08-20T04:11:48.851Z,11.40
2018-08-20T04:14:17.237Z,11.40
2018-08-20T04:16:45.562Z,11.40
2018-08-20T04:19:13.933Z,11.50
2018-08-20T04:21:41.750Z,11.50
2018-08-20T04:24:09.802Z,11.50
2018-08-20T04:26:38.092Z,11.50
2018-08-20T04:29:06.616Z,11.50
2018-08-20T04:31:36.518Z,11.60
2018-08-20T04:34:04.618Z,11.60
2018-08-20T04:36:32.392Z,11.60
2018-08-20T04:39:00.606Z,11.60
2018-08-20T04:41:28.630Z,11.60
2018-08-20T04:43:56.685Z,11.60
2018-08-20T04:46:24.568Z,11.60
2018-08-20T04:48:52.720Z,11.70
2018-08-20T04:51:20.997Z,11.70
2018-08-20T04:53:49.680Z,11.70
2018-08-20T04:56:17.684Z,11.80
2018-08-20T04:58:45.686Z,11.80
2018-08-20T05:01:14.180Z,11.90
2018-08-20T05:03:42.761Z,12.00
2018-08-20T05:06:10.968Z,12.00
2018-08-20T05:08:39.820Z,12.20
2018-08-20T05:11:08.426Z,12.20
2018-08-20T05:13:36.629Z,12.30
2018-08-20T05:16:04.668Z,12.30
2018-08-20T05:18:32.750Z,12.40
2018-08-20T05:21:01.614Z,12.50
2018-08-20T05:23:29.592Z,12.60
2018-08-20T05:25:58.256Z,12.60
2018-08-20T05:28:26.308Z,12.70
2018-08-20T05:30:54.077Z,12.80
2018-08-20T05:33:22.206Z,12.80
2018-08-20T05:35:50.250Z,12.90
2018-08-20T05:38:18.349Z,13.00
2018-08-20T05:40:46.359Z,13.10
2018-08-20T05:43:15.282Z,13.10
2018-08-20T05:45:43.450Z,13.20
2018-08-20T05:48:11.642Z,13.30
2018-08-20T05:50:39.555Z,13.40
2018-08-20T05:53:07.540Z,13.60
2018-08-20T05:55:35.520Z,13.70
2018-08-20T05:58:03.679Z,13.90
2018-08-20T06:00:31.999Z,14.10
2018-08-20T06:03:00.163Z,14.40
2018-08-20T06:05:28.385Z,14.80
2018-08-20T06:07:56.547Z,15.00
2018-08-20T06:10:25.012Z,15.20
2018-08-20T06:12:53.556Z,15.40
2018-08-20T06:15:22.176Z,15.50
2018-08-20T06:17:50.690Z,15.90
2018-08-20T06:20:18.690Z,16.50
2018-08-20T06:22:46.983Z,17.40
2018-08-20T06:25:15.418Z,18.20
2018-08-20T06:27:43.974Z,18.90
2018-08-20T06:30:15.101Z,19.50
2018-08-20T06:32:44.144Z,20.10
2018-08-20T06:35:12.252Z,20.60
2018-08-20T06:37:40.384Z,21.10
2018-08-20T06:40:10.675Z,21.40
2018-08-20T06:42:39.391Z,21.80
2018-08-20T06:45:10.766Z,22.20
2018-08-20T06:47:38.740Z,22.40
2018-08-20T06:50:06.654Z,23.00
2018-08-20T06:52:35.166Z,23.60
2018-08-20T06:55:03.678Z,23.90
2018-08-20T06:57:31.976Z,24.50
2018-08-20T06:59:59.881Z,24.90
2018-08-20T07:02:28.126Z,25.50
2018-08-20T07:04:56.073Z,25.60
2018-08-20T07:07:24.240Z,25.40
2018-08-20T07:09:52.373Z,25.00
2018-08-20T07:12:20.260Z,24.60
2018-08-20T07:14:48.337Z,24.20
2018-08-20T07:17:16.539Z,23.70
2018-08-20T07:19:44.636Z,23.30
2018-08-20T07:22:13.879Z,23.00
2018-08-20T07:24:42.158Z,22.70
2018-08-20T07:27:10.396Z,22.60
2018-08-20T07:29:39.606Z,22.40
2018-08-20T07:32:09.999Z,22.40
2018-08-20T07:34:40.149Z,22.50
2018-08-20T07:37:09.978Z,22.60
2018-08-20T07:39:38.562Z,22.90
2018-08-20T07:42:06.603Z,22.90
2018-08-20T07:44:34.564Z,22.80
2018-08-20T07:47:02.473Z,22.70
2018-08-20T07:49:30.409Z,22.60
2018-08-20T07:51:58.358Z,22.50
2018-08-20T07:54:26.144Z,22.60
2018-08-20T07:56:54.190Z,22.80
2018-08-20T07:59:22.722Z,22.90
2018-08-20T08:01:50.837Z,23.10
2018-08-20T08:04:18.995Z,23.20
2018-08-20T08:06:47.949Z,23.40
2018-08-20T08:09:16.456Z,23.50
2018-08-20T08:11:44.680Z,23.70
2018-08-20T08:14:13.474Z,23.70
2018-08-20T08:16:41.586Z,23.60
2018-08-20T08:19:09.602Z,23.80
2018-08-20T08:21:37.401Z,23.90
2018-08-20T08:24:05.373Z,23.90
2018-08-20T08:26:34.096Z,24.10
2018-08-20T08:29:02.364Z,24.20
2018-08-20T08:31:30.396Z,24.20
2018-08-20T08:33:59.029Z,24.10
2018-08-20T08:36:26.849Z,23.80
2018-08-20T08:38:55.407Z,23.70
2018-08-20T08:41:23.665Z,23.60
2018-08-20T08:43:52.210Z,23.60
2018-08-20T08:46:20.708Z,23.50
2018-08-20T08:48:49.181Z,23.60
2018-08-20T08:51:17.215Z,23.70
2018-08-20T08:53:46.018Z,23.50
2018-08-20T08:56:14.381Z,23.50
2018-08-20T08:58:42.777Z,23.50
2018-08-20T09:01:11.517Z,23.70
2018-08-20T09:03:39.932Z,24.10
2018-08-20T09:06:08.669Z,24.60
2018-08-20T09:08:37.278Z,25.00
2018-08-20T09:11:05.834Z,25.30
2018-08-20T09:13:34.579Z,25.50
2018-08-20T09:16:02.844Z,25.60
2018-08-20T09:18:30.890Z,25.90
2018-08-20T09:20:58.958Z,25.80
2018-08-20T09:23:29.713Z,25.80
2018-08-20T09:25:59.112Z,25.80
2018-08-20T09:28:27.321Z,25.70
2018-08-20T09:30:55.162Z,25.50
2018-08-20T09:33:22.987Z,25.30
2018-08-20T09:35:50.924Z,25.20
2018-08-20T09:38:18.874Z,25.00
2018-08-20T09:40:47.092Z,24.90
2018-08-20T09:43:15.213Z,24.80
2018-08-20T09:45:43.417Z,24.60
2018-08-20T09:48:11.668Z,24.40
2018-08-20T09:50:39.750Z,24.30
2018-08-20T09:53:07.643Z,24.20
2018-08-20T09:55:35.868Z,24.10
2018-08-20T09:58:04.697Z,23.90
2018-08-20T10:00:40.068Z,23.70
2018-08-20T10:03:10.716Z,23.50
2018-08-20T10:05:39.283Z,23.30
2018-08-20T10:08:07.865Z,23.20
2018-08-20T10:10:35.803Z,23.20
2018-08-20T10:13:04.283Z,23.20
2018-08-20T10:15:33.202Z,23.20
2018-08-20T10:18:01.206Z,23.30
2018-08-20T10:20:29.260Z,23.30
2018-08-20T10:22:58.679Z,23.30
2018-08-20T10:25:28.567Z,23.10
2018-08-20T10:27:57.506Z,23.20
2018-08-20T10:30:37.215Z,23.10
2018-08-20T10:33:06.012Z,23.10
2018-08-20T10:35:34.023Z,23.00
2018-08-20T10:38:03.935Z,23.00
2018-08-20T10:40:37.260Z,23.00
2018-08-20T10:43:05.373Z,23.00
2018-08-20T10:45:39.099Z,22.90
2018-08-20T10:48:08.093Z,23.00
2018-08-20T10:50:38.463Z,23.10
2018-08-20T10:53:11.681Z,23.30
2018-08-20T10:55:40.744Z,23.40
2018-08-20T10:58:12.110Z,23.50
2018-08-20T11:00:40.397Z,23.50
2018-08-20T11:03:13.001Z,23.40
2018-08-20T11:05:41.079Z,23.50
2018-08-20T11:08:12.709Z,23.60
2018-08-20T11:10:42.406Z,23.70
2018-08-20T11:13:11.085Z,23.70
2018-08-20T11:15:39.826Z,23.70
2018-08-20T11:18:09.721Z,23.70
2018-08-20T11:20:37.758Z,23.70
2018-08-20T11:23:06.236Z,23.70
2018-08-20T11:25:34.658Z,23.70
2018-08-20T11:28:02.675Z,23.70
2018-08-20T11:30:30.501Z,23.60
2018-08-20T11:32:58.539Z,23.50
2018-08-20T11:35:26.597Z,23.50
2018-08-20T11:37:54.663Z,23.50
2018-08-20T11:40:23.004Z,23.50
2018-08-20T11:42:50.871Z,23.50
2018-08-20T11:45:19.207Z,23.50
2018-08-20T11:47:47.362Z,23.70
2018-08-20T11:50:15.368Z,23.80
2018-08-20T11:52:43.705Z,23.90
2018-08-20T11:55:11.905Z,24.10
2018-08-20T11:57:40.365Z,24.30
2018-08-20T12:00:09.650Z,24.40
2018-08-20T12:02:38.258Z,24.50
2018-08-20T12:05:06.602Z,24.60
2018-08-20T12:07:34.709Z,24.60
2018-08-20T12:10:02.506Z,24.60
2018-08-20T12:12:30.845Z,24.60
2018-08-20T12:14:58.947Z,24.60
2018-08-20T12:17:26.997Z,24.60
2018-08-20T12:19:54.904Z,24.70
2018-08-20T12:22:23.687Z,24.70
2018-08-20T12:24:51.674Z,24.70
2018-08-20T12:27:19.723Z,24.70
2018-08-20T12:29:47.899Z,24.80
2018-08-20T12:32:16.035Z,24.90
2018-08-20T12:34:44.309Z,25.00
2018-08-20T12:37:12.164Z,25.20
2018-08-20T12:39:40.248Z,25.20
2018-08-20T12:42:08.231Z,25.40
2018-08-20T12:44:36.461Z,25.50
2018-08-20T12:47:04.694Z,25.60
2018-08-20T12:49:32.962Z,25.80
2018-08-20T12:52:00.881Z,25.70
2018-08-20T12:54:28.960Z,25.60
2018-08-20T12:56:56.970Z,25.40
2018-08-20T12:59:25.250Z,25.30
2018-08-20T13:01:53.181Z,25.20
2018-08-20T13:04:21.388Z,25.00
2018-08-20T13:06:49.735Z,24.80
2018-08-20T13:09:17.845Z,24.70
2018-08-20T13:11:45.830Z,24.60
2018-08-20T13:14:15.301Z,24.60
2018-08-20T13:16:43.981Z,24.50
2018-08-20T13:19:12.446Z,24.40
2018-08-20T13:21:40.480Z,24.30
2018-08-20T13:24:09.122Z,24.30
2018-08-20T13:26:38.868Z,24.30
2018-08-20T13:29:06.994Z,24.30
2018-08-20T13:31:36.700Z,24.30
2018-08-20T13:34:05.319Z,24.30
2018-08-20T13:36:37.677Z,24.20
2018-08-20T13:39:06.671Z,24.30
2018-08-20T13:41:35.747Z,24.40
2018-08-20T13:44:03.771Z,24.50
2018-08-20T13:46:31.549Z,24.50
2018-08-20T13:48:59.467Z,24.60
2018-08-20T13:51:27.579Z,24.50
2018-08-20T13:53:55.670Z,24.60
2018-08-20T13:56:23.490Z,24.50
2018-08-20T13:58:51.702Z,24.40
2018-08-20T14:01:19.637Z,24.30
2018-08-20T14:03:47.944Z,24.30
2018-08-20T14:06:16.189Z,24.20
2018-08-20T14:08:45.000Z,24.20
2018-08-20T14:11:14.066Z,24.20
2018-08-20T14:13:43.043Z,24.10
2018-08-20T14:16:11.846Z,24.10
2018-08-20T14:18:39.687Z,24.00
2018-08-20T14:21:13.662Z,24.00
2018-08-20T14:23:44.600Z,23.90
2018-08-20T14:26:12.553Z,24.00
2018-08-20T14:28:40.590Z,24.00
2018-08-20T14:31:09.094Z,24.10
2018-08-20T14:33:37.174Z,24.20
2018-08-20T14:36:05.480Z,24.30
2018-08-20T14:38:34.345Z,24.20
2018-08-20T14:41:02.417Z,24.00
2018-08-20T14:43:31.039Z,23.90
2018-08-20T14:46:05.195Z,23.80
2018-08-20T14:48:34.155Z,23.80
2018-08-20T14:51:02.008Z,23.90
2018-08-20T14:53:32.896Z,23.90
2018-08-20T14:56:01.020Z,23.90
2018-08-20T14:58:29.256Z,23.90
2018-08-20T15:00:57.979Z,24.00
2018-08-20T15:03:28.705Z,24.00
2018-08-20T15:05:57.533Z,24.00
2018-08-20T15:08:28.045Z,24.00
2018-08-20T15:10:56.181Z,24.00
2018-08-20T15:13:25.713Z,24.00
2018-08-20T15:15:54.319Z,24.00
2018-08-20T15:18:22.321Z,23.80
2018-08-20T15:20:50.782Z,23.80
2018-08-20T15:23:18.695Z,23.70
2018-08-20T15:25:47.128Z,23.70
2018-08-20T15:28:15.075Z,23.70
2018-08-20T15:30:43.303Z,23.70
2018-08-20T15:33:12.009Z,23.70
2018-08-20T15:35:40.330Z,23.70
2018-08-20T15:38:08.563Z,23.70
2018-08-20T15:40:36.413Z,23.70
2018-08-20T15:43:04.345Z,23.70
2018-08-20T15:45:32.349Z,23.60
2018-08-20T15:48:00.680Z,23.60
2018-08-20T15:50:28.678Z,23.50
2018-08-20T15:52:57.184Z,23.50
2018-08-20T15:55:25.454Z,23.50
2018-08-20T15:57:53.840Z,23.50
2018-08-20T16:00:21.854Z,23.50
2018-08-20T16:02:50.062Z,23.50
2018-08-20T16:05:18.986Z,23.50
2018-08-20T16:07:47.092Z,23.50
2018-08-20T16:10:15.083Z,23.40
2018-08-20T16:12:43.361Z,23.30
2018-08-20T16:15:11.619Z,23.30
2018-08-20T16:17:39.556Z,23.30
2018-08-20T16:20:08.138Z,23.30
2018-08-20T16:22:37.001Z,23.30
2018-08-20T16:25:06.178Z,23.40
2018-08-20T16:27:34.336Z,23.30
2018-08-20T16:30:02.524Z,23.30
2018-08-20T16:32:31.280Z,23.30
2018-08-20T16:34:59.149Z,23.30
2018-08-20T16:37:27.845Z,23.30
2018-08-20T16:39:56.017Z,23.30
2018-08-20T16:42:25.232Z,23.30
2018-08-20T16:44:53.327Z,23.40
2018-08-20T16:47:21.916Z,23.30
2018-08-20T16:49:50.238Z,23.30
2018-08-20T16:52:18.549Z,23.30
2018-08-20T16:54:46.683Z,23.30
2018-08-20T16:57:14.724Z,23.20
2018-08-20T16:59:43.346Z,23.20
2018-08-20T17:02:20.236Z,23.10
2018-08-20T17:04:48.502Z,23.10
2018-08-20T17:07:16.998Z,23.00
2018-08-20T17:09:45.232Z,23.00
2018-08-20T17:12:13.569Z,23.00
2018-08-20T17:14:43.033Z,23.00
2018-08-20T17:17:12.229Z,23.00
2018-08-20T17:19:43.891Z,23.00
2018-08-20T17:22:11.856Z,22.90
2018-08-20T17:24:40.835Z,23.00
2018-08-20T17:27:10.224Z,22.90
2018-08-20T17:29:38.325Z,22.90
2018-08-20T17:32:07.583Z,22.80
2018-08-20T17:34:38.862Z,22.80
2018-08-20T17:37:07.077Z,22.70
2018-08-20T17:39:48.070Z,22.70
2018-08-20T17:42:16.349Z,22.60
2018-08-20T17:44:44.579Z,22.60
2018-08-20T17:47:17.576Z,22.50
2018-08-20T17:49:45.982Z,22.50
2018-08-20T17:52:14.507Z,22.50
2018-08-20T17:54:42.470Z,22.50
2018-08-20T17:57:10.819Z,22.40
2018-08-20T17:59:39.080Z,22.40
2018-08-20T18:02:12.135Z,22.40
2018-08-20T18:04:40.840Z,22.30
2018-08-20T18:07:09.122Z,22.30
2018-08-20T18:09:37.219Z,22.10
2018-08-20T18:12:05.234Z,21.90
2018-08-20T18:14:34.420Z,21.90
2018-08-20T18:17:03.378Z,21.80
2018-08-20T18:19:31.371Z,21.70
2018-08-20T18:21:59.272Z,21.70
2018-08-20T18:24:27.125Z,21.60
2018-08-20T18:26:56.421Z,21.50
2018-08-20T18:29:26.834Z,21.50
2018-08-20T18:32:00.405Z,21.40
2018-08-20T18:34:29.075Z,21.20
2018-08-20T18:37:01.621Z,21.20
2018-08-20T18:39:30.311Z,21.10
2018-08-20T18:42:02.801Z,21.00
2018-08-20T18:44:30.891Z,20.80
2018-08-20T18:47:01.736Z,20.70
2018-08-20T18:49:30.170Z,20.70
2018-08-20T18:52:04.887Z,20.60
2018-08-20T18:54:39.100Z,20.60
2018-08-20T18:57:07.206Z,20.50
2018-08-20T18:59:38.625Z,20.50
2018-08-20T19:02:09.180Z,20.50
2018-08-20T19:04:43.567Z,20.40
2018-08-20T19:07:13.284Z,20.30
2018-08-20T19:09:46.367Z,20.20
2018-08-20T19:12:15.011Z,20.20
2018-08-20T19:14:44.218Z,20.20
2018-08-20T19:17:17.706Z,20.10
2018-08-20T19:19:49.738Z,20.10
2018-08-20T19:22:23.719Z,20.10
2018-08-20T19:24:51.818Z,20.10
2018-08-20T19:27:20.424Z,20.00
2018-08-20T19:29:48.907Z,19.90
2018-08-20T19:32:17.085Z,19.90
2018-08-20T19:34:45.025Z,19.90
2018-08-20T19:37:13.986Z,19.90
2018-08-20T19:39:42.726Z,19.90
2018-08-20T19:42:14.481Z,19.80
2018-08-20T19:44:43.980Z,19.80
2018-08-20T19:47:12.062Z,19.80
2018-08-20T19:49:40.288Z,19.70
2018-08-20T19:52:08.404Z,19.70
2018-08-20T19:54:36.359Z,19.60
2018-08-20T19:57:04.548Z,19.60
2018-08-20T19:59:36.385Z,19.60
2018-08-20T20:02:05.314Z,19.60
2018-08-20T20:04:34.820Z,19.60
2018-08-20T20:07:03.222Z,19.60
2018-08-20T20:09:32.054Z,19.50
2018-08-20T20:12:00.552Z,19.50
2018-08-20T20:14:33.789Z,19.40
2018-08-20T20:17:02.376Z,19.40
2018-08-20T20:19:31.064Z,19.40
2018-08-20T20:21:59.237Z,19.40
2018-08-20T20:24:27.795Z,19.40
2018-08-20T20:26:55.964Z,19.30
2018-08-20T20:29:23.967Z,19.30
2018-08-20T20:31:51.920Z,19.30
2018-08-20T20:34:19.957Z,19.20
2018-08-20T20:36:48.059Z,19.20
2018-08-20T20:39:16.032Z,19.20
2018-08-20T20:41:44.886Z,19.10
2018-08-20T20:44:13.219Z,19.10
2018-08-20T20:46:41.631Z,19.10
2018-08-20T20:49:09.707Z,19.10
2018-08-20T20:51:37.991Z,19.00
2018-08-20T20:54:05.895Z,19.00
2018-08-20T20:56:34.224Z,19.00
2018-08-20T20:59:02.410Z,19.00
2018-08-20T21:01:30.528Z,19.00
2018-08-20T21:04:01.788Z,18.90
2018-08-20T21:06:29.871Z,18.90
2018-08-20T21:08:58.617Z,18.80
2018-08-20T21:11:26.488Z,18.80
2018-08-20T21:13:54.848Z,18.70
2018-08-20T21:16:24.325Z,18.70
2018-08-20T21:18:54.463Z,18.60
2018-08-20T21:21:23.441Z,18.50
2018-08-20T21:23:51.550Z,18.40
2018-08-20T21:26:19.652Z,18.30
2018-08-20T21:28:52.437Z,18.30
2018-08-20T21:31:21.535Z,18.10
2018-08-20T21:33:57.613Z,18.00
2018-08-20T21:36:25.832Z,18.00
2018-08-20T21:38:54.576Z,17.90
2018-08-20T21:41:25.840Z,17.80
2018-08-20T21:43:54.108Z,17.60
2018-08-20T21:46:22.442Z,17.60
2018-08-20T21:48:51.469Z,17.50
2018-08-20T21:51:34.989Z,17.40
2018-08-20T21:54:03.301Z,17.30
2018-08-20T21:56:42.403Z,17.30
2018-08-20T21:59:10.341Z,17.20
2018-08-20T22:01:38.794Z,17.10
2018-08-20T22:04:12.204Z,17.00
2018-08-20T22:06:40.253Z,17.00
2018-08-20T22:09:08.014Z,16.90
2018-08-20T22:11:35.991Z,16.90
2018-08-20T22:14:04.263Z,16.80
2018-08-20T22:16:32.223Z,16.60
2018-08-20T22:19:00.320Z,16.50
2018-08-20T22:21:28.690Z,16.50
2018-08-20T22:23:57.697Z,16.40
2018-08-20T22:26:25.732Z,16.40
2018-08-20T22:28:54.118Z,16.40
2018-08-20T22:31:22.217Z,16.30
2018-08-20T22:33:56.805Z,16.20
2018-08-20T22:36:25.370Z,16.10
2018-08-20T22:38:55.322Z,16.10
2018-08-20T22:41:25.331Z,16.00
2018-08-20T22:43:53.394Z,15.90
2018-08-20T22:46:22.380Z,16.00
2018-08-20T22:48:55.360Z,15.90
2018-08-20T22:51:24.869Z,15.90
2018-08-20T22:53:56.249Z,15.80
2018-08-20T22:56:26.551Z,15.90
2018-08-20T22:59:00.750Z,15.80
2018-08-20T23:01:28.947Z,15.90
2018-08-20T23:03:56.938Z,16.00
2018-08-20T23:06:25.238Z,15.90
2018-08-20T23:08:53.257Z,15.90
2018-08-20T23:11:36.373Z,16.00
2018-08-20T23:14:05.583Z,16.00
2018-08-20T23:16:33.560Z,16.00
2018-08-20T23:19:01.798Z,16.00
2018-08-20T23:21:34.747Z,16.00
2018-08-20T23:24:02.815Z,16.00
2018-08-20T23:26:30.703Z,16.00
2018-08-20T23:28:58.654Z,16.00
2018-08-20T23:31:26.824Z,16.00
2018-08-20T23:33:55.267Z,16.00
2018-08-20T23:36:23.531Z,16.10
2018-08-20T23:38:51.717Z,16.10
2018-08-20T23:41:20.610Z,16.10
2018-08-20T23:43:58.083Z,16.10
2018-08-20T23:46:38.452Z,16.10
2018-08-20T23:49:06.272Z,16.10
2018-08-20T23:51:34.454Z,16.00
2018-08-20T23:54:02.740Z,16.00
2018-08-20T23:56:30.853Z,16.00
2018-08-20T23:58:59.351Z,16.00
